createdAt,value
2022-11-30T00:01:15.551Z,10.03
2022-11-30T00:03:49.603Z,10.02
2022-11-30T00:06:24.036Z,10.02
2022-11-30T00:08:59.433Z,10.01
2022-11-30T00:11:32.858Z,9.99
2022-11-30T00:14:05.956Z,10.00
2022-11-30T00:16:39.744Z,9.98
2022-11-30T00:19:15.409Z,9.99
2022-11-30T00:21:49.444Z,9.99
2022-11-30T00:24:23.849Z,9.99
2022-11-30T00:26:56.763Z,9.99
2022-11-30T00:29:29.900Z,10.00
2022-11-30T00:32:03.230Z,9.99
2022-11-30T00:34:36.104Z,9.99
2022-11-30T00:37:10.139Z,10.00
2022-11-30T00:39:44.505Z,10.01
2022-11-30T00:42:17.662Z,10.03
2022-11-30T00:44:50.566Z,10.05
2022-11-30T00:47:23.660Z,10.05
2022-11-30T00:49:56.507Z,10.08
2022-11-30T00:52:30.716Z,10.10
2022-11-30T00:55:05.533Z,10.11
2022-11-30T00:57:38.757Z,10.12
2022-11-30T01:00:12.993Z,10.14
2022-11-30T01:02:46.312Z,10.16
2022-11-30T01:05:19.368Z,10.16
2022-11-30T01:07:53.029Z,10.16
2022-11-30T01:10:27.567Z,10.18
2022-11-30T01:13:00.733Z,10.16
2022-11-30T01:15:37.679Z,10.15
2022-11-30T01:18:11.419Z,10.14
2022-11-30T01:20:44.754Z,10.12
2022-11-30T01:23:18.011Z,10.09
2022-11-30T01:26:02.639Z,10.07
2022-11-30T01:28:36.804Z,10.05
2022-11-30T01:31:11.881Z,10.02
2022-11-30T01:33:45.149Z,9.99
2022-11-30T01:36:19.724Z,9.98
2022-11-30T01:38:55.102Z,9.93
2022-11-30T01:41:30.812Z,9.93
2022-11-30T01:44:37.231Z,9.92
2022-11-30T01:47:13.112Z,9.89
2022-11-30T01:49:49.655Z,9.90
2022-11-30T01:52:28.033Z,9.91
2022-11-30T01:55:09.738Z,9.91
2022-11-30T01:57:48.703Z,9.95
2022-11-30T02:00:22.700Z,9.94
2022-11-30T02:03:02.113Z,9.96
2022-11-30T02:05:39.819Z,9.97
2022-11-30T02:08:13.578Z,9.98
2022-11-30T02:10:51.106Z,10.00
2022-11-30T02:13:56.852Z,10.01
2022-11-30T02:16:41.285Z,10.01
2022-11-30T02:19:42.482Z,10.02
2022-11-30T02:22:28.143Z,10.03
2022-11-30T02:25:09.724Z,10.04
2022-11-30T02:27:59.529Z,10.04
2022-11-30T02:30:37.094Z,10.03
2022-11-30T02:33:13.550Z,10.02
2022-11-30T02:35:54.790Z,10.02
2022-11-30T02:38:29.760Z,10.01
2022-11-30T02:41:03.941Z,10.02
2022-11-30T02:43:37.565Z,10.02
2022-11-30T02:46:17.905Z,10.06
2022-11-30T02:48:58.034Z,10.08
2022-11-30T02:51:35.322Z,10.08
2022-11-30T02:54:08.491Z,10.07
2022-11-30T02:56:41.389Z,10.09
2022-11-30T02:59:14.584Z,10.11
2022-11-30T03:01:49.061Z,10.13
2022-11-30T03:04:22.097Z,10.14
2022-11-30T03:06:55.052Z,10.14
2022-11-30T03:09:28.059Z,10.16
2022-11-30T03:12:01.222Z,10.17
2022-11-30T03:14:34.598Z,10.16
2022-11-30T03:17:10.106Z,10.19
2022-11-30T03:19:43.366Z,10.17
2022-11-30T03:22:16.785Z,10.19
2022-11-30T03:24:50.355Z,10.18
2022-11-30T03:27:24.055Z,10.18
2022-11-30T03:29:57.031Z,10.19
2022-11-30T03:32:31.945Z,10.18
2022-11-30T03:35:05.392Z,10.18
2022-11-30T03:37:38.312Z,10.18
2022-11-30T03:40:12.843Z,10.17
2022-11-30T03:42:46.182Z,10.16
2022-11-30T03:45:19.319Z,10.17
2022-11-30T03:47:53.888Z,10.17
2022-11-30T03:50:27.019Z,10.15
2022-11-30T03:52:59.972Z,10.13
2022-11-30T03:55:34.238Z,10.11
2022-11-30T03:58:07.317Z,10.08
2022-11-30T04:00:41.896Z,10.05
2022-11-30T04:03:16.998Z,10.04
2022-11-30T04:05:50.163Z,9.98
2022-11-30T04:08:23.367Z,9.97
2022-11-30T04:10:58.067Z,9.97
2022-11-30T04:13:31.845Z,9.96
2022-11-30T04:16:06.559Z,9.94
2022-11-30T04:18:41.588Z,9.94
2022-11-30T04:21:14.865Z,9.92
2022-11-30T04:23:47.741Z,9.93
2022-11-30T04:26:21.086Z,9.91
2022-11-30T04:28:53.972Z,9.91
2022-11-30T04:31:26.974Z,9.91
2022-11-30T04:34:01.538Z,9.89
2022-11-30T04:36:34.786Z,9.89
2022-11-30T04:39:07.713Z,9.86
2022-11-30T04:41:41.250Z,9.86
2022-11-30T04:44:14.201Z,9.84
2022-11-30T04:46:47.195Z,9.84
2022-11-30T04:49:21.445Z,9.86
2022-11-30T04:51:54.653Z,9.83
2022-11-30T04:54:27.843Z,9.81
2022-11-30T04:57:02.993Z,9.84
2022-11-30T04:59:36.113Z,9.82
2022-11-30T05:02:09.501Z,9.80
2022-11-30T05:04:43.892Z,9.81
2022-11-30T05:07:17.190Z,9.79
2022-11-30T05:09:50.608Z,9.79
2022-11-30T05:12:23.736Z,9.79
2022-11-30T05:14:56.716Z,9.77
2022-11-30T05:17:29.585Z,9.76
2022-11-30T05:20:04.080Z,9.76
2022-11-30T05:22:37.186Z,9.74
2022-11-30T05:25:10.760Z,9.74
2022-11-30T05:27:43.831Z,9.74
2022-11-30T05:30:17.282Z,9.71
2022-11-30T05:32:50.428Z,9.72
2022-11-30T05:35:25.116Z,9.69
2022-11-30T05:37:58.284Z,9.67
2022-11-30T05:40:32.758Z,9.67
2022-11-30T05:43:06.209Z,9.66
2022-11-30T05:45:39.795Z,9.65
2022-11-30T05:48:13.095Z,9.63
2022-11-30T05:50:47.371Z,9.64
2022-11-30T05:53:23.399Z,9.62
2022-11-30T05:55:56.311Z,9.62
2022-11-30T05:58:29.709Z,9.63
2022-11-30T06:01:02.902Z,9.60
2022-11-30T06:03:37.019Z,9.61
2022-11-30T06:06:11.483Z,9.63
2022-11-30T06:08:44.495Z,9.64
2022-11-30T06:11:17.903Z,9.65
2022-11-30T06:13:53.475Z,9.66
2022-11-30T06:16:26.671Z,9.68
2022-11-30T06:19:00.788Z,9.69
2022-11-30T06:21:35.601Z,9.69
2022-11-30T06:24:10.226Z,9.71
2022-11-30T06:26:43.080Z,9.70
2022-11-30T06:29:16.345Z,9.71
2022-11-30T06:31:49.354Z,9.72
2022-11-30T06:34:22.657Z,9.72
2022-11-30T06:36:58.632Z,9.74
2022-11-30T06:40:04.275Z,9.74
2022-11-30T06:42:25.259Z,9.73
2022-11-30T06:44:58.280Z,9.75
2022-11-30T06:47:31.299Z,9.75
2022-11-30T06:50:04.710Z,9.76
2022-11-30T06:52:39.518Z,9.77
2022-11-30T06:55:12.490Z,9.78
2022-11-30T06:57:45.883Z,9.79
2022-11-30T07:00:19.394Z,9.82
2022-11-30T07:02:52.319Z,9.84
2022-11-30T07:05:25.665Z,9.84
2022-11-30T07:08:00.210Z,9.89
2022-11-30T07:10:33.419Z,9.88
2022-11-30T07:13:06.476Z,9.91
2022-11-30T07:15:40.036Z,9.90
2022-11-30T07:18:13.330Z,9.88
2022-11-30T07:20:46.590Z,9.89
2022-11-30T07:23:38.123Z,9.90
2022-11-30T07:26:11.298Z,9.89
2022-11-30T07:28:46.193Z,9.89
2022-11-30T07:31:21.569Z,9.91
2022-11-30T07:33:54.919Z,9.91
2022-11-30T07:36:31.331Z,9.94
2022-11-30T07:39:06.209Z,9.97
2022-11-30T07:41:39.452Z,9.98
2022-11-30T07:44:12.951Z,10.00
2022-11-30T07:46:45.839Z,10.02
2022-11-30T07:49:18.941Z,10.02
2022-11-30T07:51:52.007Z,10.02
2022-11-30T07:54:26.217Z,10.00
2022-11-30T07:56:59.094Z,9.98
2022-11-30T07:59:31.976Z,9.95
2022-11-30T08:02:05.420Z,9.92
2022-11-30T08:04:38.461Z,9.90
2022-11-30T08:07:11.400Z,9.88
2022-11-30T08:09:46.247Z,9.86
2022-11-30T08:12:19.188Z,9.83
2022-11-30T08:15:18.743Z,9.84
2022-11-30T08:17:44.931Z,9.80
2022-11-30T08:20:18.209Z,9.80
2022-11-30T08:22:52.911Z,9.78
2022-11-30T08:25:27.192Z,9.78
2022-11-30T08:28:00.313Z,9.72
2022-11-30T08:30:33.322Z,9.71
2022-11-30T08:33:06.512Z,9.68
2022-11-30T08:35:39.341Z,9.65
2022-11-30T08:38:12.484Z,9.64
2022-11-30T08:40:46.723Z,9.61
2022-11-30T08:43:19.600Z,9.59
2022-11-30T08:45:54.543Z,9.57
2022-11-30T08:48:30.002Z,9.55
2022-11-30T08:51:03.687Z,9.53
2022-11-30T08:53:36.844Z,9.52
2022-11-30T08:56:14.056Z,9.56
2022-11-30T08:58:47.991Z,9.52
2022-11-30T09:01:22.560Z,9.54
2022-11-30T09:03:57.279Z,9.55
2022-11-30T09:06:31.867Z,9.57
2022-11-30T09:09:04.945Z,9.56
2022-11-30T09:11:39.252Z,9.59
2022-11-30T09:14:12.280Z,9.60
2022-11-30T09:16:45.125Z,9.60
2022-11-30T09:19:17.948Z,9.63
2022-11-30T09:21:52.115Z,9.65
2022-11-30T09:24:25.542Z,9.68
2022-11-30T09:26:59.801Z,9.70
2022-11-30T09:29:33.554Z,9.72
2022-11-30T09:32:10.425Z,9.77
2022-11-30T09:34:53.404Z,9.82
2022-11-30T09:37:26.426Z,9.88
2022-11-30T09:40:00.380Z,9.96
2022-11-30T09:42:47.139Z,10.03
2022-11-30T09:45:24.884Z,10.08
2022-11-30T09:48:18.801Z,10.17
2022-11-30T09:50:52.621Z,10.21
2022-11-30T09:53:30.087Z,10.28
2022-11-30T09:56:04.330Z,10.31
2022-11-30T09:58:49.091Z,10.34
2022-11-30T10:01:23.095Z,10.34
2022-11-30T10:03:58.151Z,10.34
2022-11-30T10:06:42.563Z,10.38
2022-11-30T10:09:30.863Z,10.37
2022-11-30T10:12:10.484Z,10.39
2022-11-30T10:15:16.678Z,10.41
2022-11-30T10:17:56.742Z,10.39
2022-11-30T10:20:53.054Z,10.39
2022-11-30T10:23:42.367Z,10.44
2022-11-30T10:26:17.733Z,10.45
2022-11-30T10:28:52.900Z,10.49
2022-11-30T10:31:34.456Z,10.58
2022-11-30T10:34:21.258Z,10.68
2022-11-30T10:37:04.742Z,10.75
2022-11-30T10:39:53.960Z,10.80
2022-11-30T10:42:33.916Z,10.89
2022-11-30T10:45:11.646Z,10.94
2022-11-30T10:47:51.438Z,11.02
2022-11-30T10:50:28.352Z,11.07
2022-11-30T10:53:02.465Z,11.10
2022-11-30T10:55:39.987Z,11.17
2022-11-30T10:58:20.942Z,11.20
2022-11-30T11:01:04.692Z,11.21
2022-11-30T11:03:39.309Z,11.21
2022-11-30T11:06:19.765Z,11.21
2022-11-30T11:08:52.637Z,11.18
2022-11-30T11:11:32.606Z,11.19
2022-11-30T11:14:20.698Z,11.18
2022-11-30T11:16:57.036Z,11.15
2022-11-30T11:19:37.524Z,11.13
2022-11-30T11:22:18.610Z,11.11
2022-11-30T11:24:54.494Z,11.08
2022-11-30T11:27:29.676Z,11.09
2022-11-30T11:30:07.927Z,11.08
2022-11-30T11:32:40.968Z,11.03
2022-11-30T11:35:37.470Z,11.03
2022-11-30T11:38:20.365Z,11.02
2022-11-30T11:40:55.844Z,11.00
2022-11-30T11:43:31.136Z,10.97
2022-11-30T11:46:12.744Z,10.97
2022-11-30T11:48:57.615Z,10.96
2022-11-30T11:51:33.765Z,10.92
2022-11-30T11:54:23.970Z,10.92
2022-11-30T11:56:57.771Z,10.90
2022-11-30T11:59:41.866Z,10.88
2022-11-30T12:02:28.741Z,10.86
2022-11-30T12:05:08.040Z,10.85
2022-11-30T12:07:47.863Z,10.83
2022-11-30T12:10:51.312Z,10.85
2022-11-30T12:13:23.035Z,10.84
2022-11-30T12:16:05.598Z,10.82
2022-11-30T12:18:50.759Z,10.81
2022-11-30T12:21:37.246Z,10.78
2022-11-30T12:24:35.146Z,10.75
2022-11-30T12:27:17.691Z,10.71
2022-11-30T12:30:02.324Z,10.69
2022-11-30T12:32:50.094Z,10.67
2022-11-30T12:35:35.315Z,10.67
2022-11-30T12:38:19.152Z,10.62
2022-11-30T12:41:01.679Z,10.60
2022-11-30T12:43:44.162Z,10.58
2022-11-30T12:46:24.328Z,10.55
2022-11-30T12:49:13.395Z,10.51
2022-11-30T12:51:53.430Z,10.46
2022-11-30T12:54:35.043Z,10.43
2022-11-30T12:57:17.212Z,10.42
2022-11-30T13:00:03.014Z,10.37
2022-11-30T13:03:12.216Z,10.35
2022-11-30T13:05:50.316Z,10.30
2022-11-30T13:08:28.737Z,10.25
2022-11-30T13:11:07.300Z,10.19
2022-11-30T13:13:50.144Z,10.14
2022-11-30T13:16:25.907Z,10.07
2022-11-30T13:19:02.962Z,10.05
2022-11-30T13:21:42.292Z,10.01
2022-11-30T13:24:21.409Z,9.97
2022-11-30T13:27:00.500Z,9.96
2022-11-30T13:30:13.457Z,9.94
2022-11-30T13:32:57.816Z,9.91
2022-11-30T13:35:53.567Z,9.90
2022-11-30T13:38:42.058Z,9.86
2022-11-30T13:41:21.843Z,9.86
2022-11-30T13:43:54.681Z,9.85
2022-11-30T13:46:28.941Z,9.84
2022-11-30T13:49:19.092Z,9.83
2022-11-30T13:52:19.989Z,9.80
2022-11-30T13:54:46.656Z,9.77
2022-11-30T13:57:55.454Z,9.78
2022-11-30T14:01:00.967Z,9.76
2022-11-30T14:03:35.330Z,9.74
2022-11-30T14:06:46.627Z,9.74
2022-11-30T14:10:09.462Z,9.75
2022-11-30T14:12:58.699Z,9.74
2022-11-30T14:15:53.398Z,9.71
2022-11-30T14:18:34.476Z,9.67
2022-11-30T14:21:17.934Z,9.64
2022-11-30T14:23:58.026Z,9.60
2022-11-30T14:26:37.192Z,9.59
2022-11-30T14:29:18.780Z,9.54
2022-11-30T14:31:57.355Z,9.51
2022-11-30T14:34:33.885Z,9.48
2022-11-30T14:37:17.229Z,9.45
2022-11-30T14:39:53.702Z,9.42
2022-11-30T14:42:30.125Z,9.41
2022-11-30T14:45:03.312Z,9.36
2022-11-30T14:47:37.209Z,9.34
2022-11-30T14:50:23.021Z,9.34
2022-11-30T14:53:21.386Z,9.31
2022-11-30T14:56:00.003Z,9.29
2022-11-30T14:58:41.272Z,9.29
2022-11-30T15:01:20.004Z,9.29
2022-11-30T15:03:55.538Z,9.30
2022-11-30T15:06:32.309Z,9.30
2022-11-30T15:09:05.287Z,9.32
2022-11-30T15:11:42.380Z,9.35
2022-11-30T15:14:17.452Z,9.35
2022-11-30T15:16:53.222Z,9.34
2022-11-30T15:19:28.372Z,9.31
2022-11-30T15:22:01.822Z,9.29
2022-11-30T15:24:34.769Z,9.25
2022-11-30T15:27:11.425Z,9.23
2022-11-30T15:29:51.313Z,9.19
2022-11-30T15:32:26.298Z,9.16
2022-11-30T15:35:00.961Z,9.14
2022-11-30T15:37:38.790Z,9.12
2022-11-30T15:40:17.183Z,9.08
2022-11-30T15:42:51.615Z,9.03
2022-11-30T15:45:28.402Z,9.01
2022-11-30T15:48:02.646Z,8.96
2022-11-30T15:50:41.161Z,8.94
2022-11-30T15:53:34.722Z,8.92
2022-11-30T15:56:09.099Z,8.87
2022-11-30T15:58:46.536Z,8.85
2022-11-30T16:01:24.722Z,8.85
2022-11-30T16:04:06.189Z,8.86
2022-11-30T16:06:47.185Z,8.85
2022-11-30T16:09:23.282Z,8.84
2022-11-30T16:11:58.864Z,8.84
2022-11-30T16:14:31.737Z,8.83
2022-11-30T16:17:09.113Z,8.82
2022-11-30T16:19:42.351Z,8.80
2022-11-30T16:22:16.675Z,8.78
2022-11-30T16:24:49.530Z,8.72
2022-11-30T16:27:22.652Z,8.67
2022-11-30T16:29:56.009Z,8.60
2022-11-30T16:32:30.393Z,8.52
2022-11-30T16:35:03.247Z,8.47
2022-11-30T16:37:36.260Z,8.43
2022-11-30T16:40:10.056Z,8.38
2022-11-30T16:42:43.085Z,8.35
2022-11-30T16:45:19.404Z,8.33
2022-11-30T16:47:53.939Z,8.32
2022-11-30T16:50:26.835Z,8.32
2022-11-30T16:53:00.468Z,8.33
2022-11-30T16:55:37.727Z,8.35
2022-11-30T16:58:10.907Z,8.37
2022-11-30T17:00:43.968Z,8.37
2022-11-30T17:03:22.501Z,8.42
2022-11-30T17:05:55.321Z,8.41
2022-11-30T17:08:28.522Z,8.41
2022-11-30T17:11:01.984Z,8.42
2022-11-30T17:13:34.776Z,8.41
2022-11-30T17:16:10.366Z,8.43
2022-11-30T17:18:44.611Z,8.41
2022-11-30T17:21:20.562Z,8.41
2022-11-30T17:23:53.448Z,8.41
2022-11-30T17:26:27.343Z,8.43
2022-11-30T17:29:00.284Z,8.45
2022-11-30T17:31:33.867Z,8.46
2022-11-30T17:34:08.591Z,8.49
2022-11-30T17:36:41.450Z,8.48
2022-11-30T17:39:14.279Z,8.50
2022-11-30T17:41:47.208Z,8.49
2022-11-30T17:44:20.012Z,8.50
2022-11-30T17:46:52.973Z,8.50
2022-11-30T17:49:27.171Z,8.50
2022-11-30T17:52:00.177Z,8.49
2022-11-30T17:54:33.097Z,8.50
2022-11-30T17:57:05.924Z,8.50
2022-11-30T17:59:38.735Z,8.49
2022-11-30T18:02:12.597Z,8.46
2022-11-30T18:04:47.107Z,8.46
2022-11-30T18:07:20.276Z,8.46
2022-11-30T18:09:53.212Z,8.48
2022-11-30T18:12:26.089Z,8.46
2022-11-30T18:14:58.990Z,8.51
2022-11-30T18:17:32.154Z,8.50
2022-11-30T18:20:07.900Z,8.52
2022-11-30T18:22:40.860Z,8.53
2022-11-30T18:25:15.532Z,8.55
2022-11-30T18:27:48.450Z,8.59
2022-11-30T18:30:21.626Z,8.60
2022-11-30T18:32:54.465Z,8.63
2022-11-30T18:35:28.760Z,8.62
2022-11-30T18:38:01.628Z,8.63
2022-11-30T18:40:34.396Z,8.65
2022-11-30T18:43:07.263Z,8.66
2022-11-30T18:45:40.142Z,8.67
2022-11-30T18:48:13.016Z,8.69
2022-11-30T18:50:47.202Z,8.70
2022-11-30T18:53:19.981Z,8.69
2022-11-30T18:55:52.860Z,8.69
2022-11-30T18:58:25.919Z,8.70
2022-11-30T19:01:07.949Z,8.73
2022-11-30T19:03:41.413Z,8.73
2022-11-30T19:06:38.765Z,8.75
2022-11-30T19:09:13.797Z,8.76
2022-11-30T19:11:47.063Z,8.77
2022-11-30T19:14:20.125Z,8.77
2022-11-30T19:16:53.186Z,8.78
2022-11-30T19:19:28.105Z,8.79
2022-11-30T19:22:02.626Z,8.82
2022-11-30T19:24:36.523Z,8.81
2022-11-30T19:27:09.460Z,8.83
2022-11-30T19:29:42.369Z,8.83
2022-11-30T19:32:15.206Z,8.83
2022-11-30T19:34:51.108Z,8.83
2022-11-30T19:37:25.706Z,8.84
2022-11-30T19:39:58.623Z,8.85
2022-11-30T19:42:32.259Z,8.83
2022-11-30T19:45:10.811Z,8.82
2022-11-30T19:47:43.781Z,8.85
2022-11-30T19:50:16.747Z,8.83
2022-11-30T19:52:51.238Z,8.86
2022-11-30T19:55:26.286Z,8.87
2022-11-30T19:57:59.168Z,8.88
2022-11-30T20:00:32.305Z,8.89
2022-11-30T20:03:09.753Z,8.90
2022-11-30T20:05:50.741Z,8.93
2022-11-30T20:08:25.203Z,8.94
2022-11-30T20:10:58.427Z,8.95
2022-11-30T20:13:34.475Z,8.94
2022-11-30T20:16:09.649Z,8.95
2022-11-30T20:18:46.245Z,8.95
2022-11-30T20:21:28.356Z,8.97
2022-11-30T20:24:14.025Z,8.99
2022-11-30T20:26:47.091Z,8.95
2022-11-30T20:29:19.867Z,8.96
2022-11-30T20:31:53.008Z,8.96
2022-11-30T20:34:33.998Z,8.94
2022-11-30T20:37:07.577Z,8.91
2022-11-30T20:39:45.663Z,8.91
2022-11-30T20:42:19.296Z,8.90
2022-11-30T20:44:52.160Z,8.86
2022-11-30T20:47:25.163Z,8.84
2022-11-30T20:49:58.505Z,8.80
2022-11-30T20:52:31.428Z,8.76
2022-11-30T20:55:06.051Z,8.72
2022-11-30T20:57:38.890Z,8.64
2022-11-30T21:00:13.471Z,8.60
2022-11-30T21:02:46.451Z,8.54
2022-11-30T21:05:19.948Z,8.53
2022-11-30T21:07:52.988Z,8.52
2022-11-30T21:10:27.210Z,8.51
2022-11-30T21:13:00.070Z,8.50
2022-11-30T21:15:33.102Z,8.50
2022-11-30T21:18:06.629Z,8.50
2022-11-30T21:20:39.473Z,8.49
2022-11-30T21:23:12.281Z,8.51
2022-11-30T21:25:46.823Z,8.52
2022-11-30T21:28:20.418Z,8.51
2022-11-30T21:30:53.250Z,8.52
2022-11-30T21:33:26.249Z,8.53
2022-11-30T21:35:59.071Z,8.54
2022-11-30T21:38:31.931Z,8.52
2022-11-30T21:41:06.633Z,8.53
2022-11-30T21:43:39.692Z,8.51
2022-11-30T21:46:14.313Z,8.52
2022-11-30T21:48:49.505Z,8.53
2022-11-30T21:51:24.081Z,8.51
2022-11-30T21:53:58.860Z,8.50
2022-11-30T21:56:34.735Z,8.50
2022-11-30T21:59:09.414Z,8.47
2022-11-30T22:01:44.731Z,8.46
2022-11-30T22:04:17.664Z,8.44
2022-11-30T22:06:50.526Z,8.43
2022-11-30T22:09:23.395Z,8.42
2022-11-30T22:11:57.791Z,8.42
2022-11-30T22:14:30.609Z,8.41
2022-11-30T22:17:03.449Z,8.40
2022-11-30T22:19:36.305Z,8.38
2022-11-30T22:22:09.071Z,8.38
2022-11-30T22:24:41.916Z,8.36
2022-11-30T22:27:16.296Z,8.34
2022-11-30T22:29:50.930Z,8.32
2022-11-30T22:32:23.799Z,8.31
2022-11-30T22:34:56.667Z,8.28
2022-11-30T22:37:29.514Z,8.25
2022-11-30T22:40:02.467Z,8.21
2022-11-30T22:42:38.095Z,8.18
2022-11-30T22:45:11.486Z,8.13
2022-11-30T22:47:44.384Z,8.06
2022-11-30T22:50:17.485Z,8.00
2022-11-30T22:53:04.903Z,7.93
2022-11-30T22:55:37.998Z,7.89
2022-11-30T22:58:12.316Z,7.88
2022-11-30T23:00:45.260Z,7.84
2022-11-30T23:03:18.235Z,7.85
2022-11-30T23:05:51.184Z,7.83
2022-11-30T23:08:23.971Z,7.83
2022-11-30T23:10:58.312Z,7.85
2022-11-30T23:13:32.591Z,7.87
2022-11-30T23:16:06.329Z,7.88
2022-11-30T23:18:41.510Z,7.90
2022-11-30T23:21:16.870Z,7.93
2022-11-30T23:57:42.824Z,7.93
